createdAt,value
2023-04-30T00:01:30.091Z,19.30
2023-04-30T00:03:59.175Z,19.30
2023-04-30T00:06:30.329Z,19.30
2023-04-30T00:08:59.704Z,19.30
2023-04-30T00:11:28.785Z,19.30
2023-04-30T00:13:57.572Z,19.30
2023-04-30T00:16:26.878Z,19.30
2023-04-30T00:18:55.908Z,19.30
2023-04-30T00:21:24.918Z,19.30
2023-04-30T00:23:55.902Z,19.20
2023-04-30T00:26:24.992Z,19.30
2023-04-30T00:28:53.632Z,19.20
2023-04-30T00:31:22.865Z,19.20
2023-04-30T00:33:52.291Z,19.20
2023-04-30T00:36:21.539Z,19.20
2023-04-30T00:38:50.127Z,19.20
2023-04-30T00:41:21.858Z,19.20
2023-04-30T00:43:50.694Z,19.20
2023-04-30T00:46:19.305Z,19.20
2023-04-30T00:48:49.379Z,19.20
2023-04-30T00:51:20.722Z,19.20
2023-04-30T00:53:49.527Z,19.20
2023-04-30T00:56:20.544Z,19.10
2023-04-30T00:58:54.411Z,19.20
2023-04-30T01:01:24.368Z,19.10
2023-04-30T01:03:53.758Z,19.10
2023-04-30T01:06:22.876Z,19.10
2023-04-30T01:08:51.934Z,19.10
2023-04-30T01:11:33.390Z,19.10
2023-04-30T01:14:09.954Z,19.10
2023-04-30T01:16:44.873Z,19.10
2023-04-30T01:19:31.370Z,19.10
2023-04-30T01:22:03.763Z,19.10
2023-04-30T01:24:56.097Z,19.10
2023-04-30T01:27:42.191Z,19.10
2023-04-30T01:30:14.728Z,19.00
2023-04-30T01:32:43.380Z,19.00
2023-04-30T01:35:12.687Z,19.00
2023-04-30T01:37:48.963Z,19.00
2023-04-30T01:40:26.143Z,19.00
2023-04-30T01:43:01.740Z,19.00
2023-04-30T01:45:49.821Z,19.00
2023-04-30T01:48:29.591Z,18.90
2023-04-30T01:51:08.837Z,18.90
2023-04-30T01:53:42.690Z,18.90
2023-04-30T01:56:15.260Z,18.90
2023-04-30T01:58:44.522Z,18.90
2023-04-30T02:01:31.050Z,18.90
2023-04-30T02:04:00.423Z,18.80
2023-04-30T02:06:30.427Z,18.90
2023-04-30T02:09:03.566Z,18.80
2023-04-30T02:11:32.379Z,18.80
2023-04-30T02:14:01.067Z,18.80
2023-04-30T02:16:31.268Z,18.80
2023-04-30T02:19:00.038Z,18.80
2023-04-30T02:21:28.715Z,18.80
2023-04-30T02:23:57.350Z,18.80
2023-04-30T02:26:26.753Z,18.80
2023-04-30T02:28:55.359Z,18.80
2023-04-30T02:31:24.023Z,18.80
2023-04-30T02:33:55.368Z,18.80
2023-04-30T02:36:23.919Z,18.70
2023-04-30T02:38:52.590Z,18.70
2023-04-30T02:41:21.851Z,18.70
2023-04-30T02:43:50.403Z,18.70
2023-04-30T02:46:19.336Z,18.70
2023-04-30T02:48:47.703Z,18.70
2023-04-30T02:51:17.499Z,18.70
2023-04-30T02:53:45.911Z,18.70
2023-04-30T02:56:14.294Z,18.70
2023-04-30T02:58:45.823Z,18.70
2023-04-30T03:01:14.946Z,18.70
2023-04-30T03:03:43.330Z,18.70
2023-04-30T03:06:11.767Z,18.70
2023-04-30T03:08:41.522Z,18.70
2023-04-30T03:11:09.886Z,18.70
2023-04-30T03:13:38.537Z,18.70
2023-04-30T03:16:07.299Z,18.60
2023-04-30T03:18:35.770Z,18.60
2023-04-30T03:21:04.087Z,18.60
2023-04-30T03:23:32.737Z,18.60
2023-04-30T03:26:02.582Z,18.60
2023-04-30T03:28:31.036Z,18.60
2023-04-30T03:30:59.602Z,18.60
2023-04-30T03:33:28.994Z,18.60
2023-04-30T03:35:57.405Z,18.60
2023-04-30T03:38:26.085Z,18.60
2023-04-30T03:40:54.545Z,18.60
2023-04-30T03:43:24.554Z,18.50
2023-04-30T03:45:53.054Z,18.50
2023-04-30T03:48:21.966Z,18.50
2023-04-30T03:50:50.426Z,18.50
2023-04-30T03:53:18.779Z,18.50
2023-04-30T03:55:47.279Z,18.50
2023-04-30T03:58:16.583Z,18.50
2023-04-30T04:00:47.807Z,18.60
2023-04-30T04:03:16.314Z,18.50
2023-04-30T04:05:44.863Z,18.50
2023-04-30T04:08:13.730Z,18.50
2023-04-30T04:10:42.413Z,18.50
2023-04-30T04:13:11.609Z,18.50
2023-04-30T04:15:40.024Z,18.50
2023-04-30T04:18:10.073Z,18.50
2023-04-30T04:20:39.002Z,18.50
2023-04-30T04:23:07.378Z,18.40
2023-04-30T04:25:36.440Z,18.40
2023-04-30T04:28:04.963Z,18.40
2023-04-30T04:30:33.960Z,18.40
2023-04-30T04:33:02.486Z,18.40
2023-04-30T04:35:32.278Z,18.40
2023-04-30T04:38:00.705Z,18.40
2023-04-30T04:40:29.889Z,18.40
2023-04-30T04:42:59.952Z,18.30
2023-04-30T04:45:28.402Z,18.30
2023-04-30T04:47:56.745Z,18.30
2023-04-30T04:50:25.683Z,18.30
2023-04-30T04:52:55.425Z,18.30
2023-04-30T04:55:23.711Z,18.30
2023-04-30T04:57:52.050Z,18.30
2023-04-30T05:00:22.256Z,18.40
2023-04-30T05:02:51.091Z,18.40
2023-04-30T05:05:19.753Z,18.30
2023-04-30T05:07:48.141Z,18.40
2023-04-30T05:10:18.387Z,18.30
2023-04-30T05:12:46.760Z,18.40
2023-04-30T05:15:15.167Z,18.30
2023-04-30T05:17:43.602Z,18.30
2023-04-30T05:20:13.940Z,18.40
2023-04-30T05:22:42.227Z,18.40
2023-04-30T05:25:11.429Z,18.40
2023-04-30T05:27:41.233Z,18.40
2023-04-30T05:30:10.784Z,18.40
2023-04-30T05:32:39.285Z,18.40
2023-04-30T05:35:08.644Z,18.40
2023-04-30T05:37:36.932Z,18.40
2023-04-30T05:40:06.536Z,18.40
2023-04-30T05:42:34.906Z,18.50
2023-04-30T05:45:05.605Z,18.50
2023-04-30T05:47:34.108Z,18.50
2023-04-30T05:50:02.644Z,18.50
2023-04-30T05:52:30.944Z,18.50
2023-04-30T05:54:59.348Z,18.50
2023-04-30T05:57:27.714Z,18.50
2023-04-30T05:59:56.337Z,18.60
2023-04-30T06:02:26.945Z,18.60
2023-04-30T06:04:55.981Z,18.60
2023-04-30T06:07:24.367Z,18.60
2023-04-30T06:09:53.040Z,18.60
2023-04-30T06:12:21.759Z,18.60
2023-04-30T06:14:50.109Z,18.60
2023-04-30T06:17:18.393Z,18.60
2023-04-30T06:19:48.128Z,18.70
2023-04-30T06:22:16.643Z,18.70
2023-04-30T06:24:45.648Z,18.70
2023-04-30T06:27:14.103Z,18.70
2023-04-30T06:29:42.429Z,18.70
2023-04-30T06:32:10.967Z,18.80
2023-04-30T06:34:40.442Z,18.80
2023-04-30T06:37:10.136Z,18.80
2023-04-30T06:39:38.536Z,18.80
2023-04-30T06:42:06.891Z,18.80
2023-04-30T06:44:35.204Z,18.80
2023-04-30T06:47:03.598Z,18.80
2023-04-30T06:49:31.918Z,18.80
2023-04-30T06:52:00.590Z,18.80
2023-04-30T06:54:30.333Z,18.90
2023-04-30T06:56:58.703Z,18.90
2023-04-30T06:59:27.200Z,18.90
2023-04-30T07:01:55.937Z,18.90
2023-04-30T07:04:25.601Z,18.90
2023-04-30T07:06:53.902Z,19.00
2023-04-30T07:09:22.402Z,19.00
2023-04-30T07:11:52.272Z,19.00
2023-04-30T07:14:21.267Z,19.00
2023-04-30T07:16:51.660Z,19.00
2023-04-30T07:19:20.388Z,19.10
2023-04-30T07:21:48.969Z,19.10
2023-04-30T07:24:17.370Z,19.10
2023-04-30T07:26:46.630Z,19.20
2023-04-30T07:29:17.047Z,19.20
2023-04-30T07:31:45.624Z,19.20
2023-04-30T07:34:14.330Z,19.20
2023-04-30T07:36:42.872Z,19.20
2023-04-30T07:39:11.965Z,19.30
2023-04-30T07:41:40.363Z,19.30
2023-04-30T07:44:08.823Z,19.30
2023-04-30T07:46:38.726Z,19.30
2023-04-30T07:49:07.152Z,19.30
2023-04-30T07:51:35.962Z,19.40
2023-04-30T07:54:04.320Z,19.40
2023-04-30T07:56:33.326Z,19.40
2023-04-30T07:59:01.652Z,19.40
2023-04-30T08:01:30.078Z,19.40
2023-04-30T08:04:00.017Z,19.40
2023-04-30T08:06:29.085Z,19.50
2023-04-30T08:08:57.693Z,19.50
2023-04-30T08:11:26.485Z,19.50
2023-04-30T08:13:55.823Z,19.50
2023-04-30T08:16:24.635Z,19.50
2023-04-30T08:18:53.274Z,19.50
2023-04-30T08:21:23.509Z,19.60
2023-04-30T08:23:52.188Z,19.60
2023-04-30T08:26:21.277Z,19.60
2023-04-30T08:28:49.908Z,19.60
2023-04-30T08:31:19.403Z,19.60
2023-04-30T08:33:48.019Z,19.60
2023-04-30T08:36:16.598Z,19.70
2023-04-30T08:38:46.711Z,19.70
2023-04-30T08:41:16.951Z,19.70
2023-04-30T08:43:45.824Z,19.70
2023-04-30T08:46:15.013Z,19.70
2023-04-30T08:48:43.838Z,19.70
2023-04-30T08:51:12.699Z,19.80
2023-04-30T08:53:43.544Z,19.80
2023-04-30T08:56:13.955Z,19.80
2023-04-30T08:58:43.929Z,19.80
2023-04-30T09:01:12.987Z,19.80
2023-04-30T09:03:41.525Z,19.80
2023-04-30T09:06:10.189Z,19.90
2023-04-30T09:08:43.890Z,20.00
2023-04-30T09:11:28.390Z,19.90
2023-04-30T09:13:59.677Z,20.00
2023-04-30T09:16:33.244Z,20.00
2023-04-30T09:19:01.951Z,20.00
2023-04-30T09:21:34.969Z,20.00
2023-04-30T09:24:05.431Z,20.00
2023-04-30T09:26:39.141Z,20.10
2023-04-30T09:29:08.949Z,20.00
2023-04-30T09:31:38.341Z,20.10
2023-04-30T09:34:07.679Z,20.10
2023-04-30T09:36:36.392Z,20.10
2023-04-30T09:39:10.814Z,20.10
2023-04-30T09:41:41.348Z,20.20
2023-04-30T09:44:09.796Z,20.20
2023-04-30T09:46:38.620Z,20.20
2023-04-30T09:49:08.117Z,20.30
2023-04-30T09:51:37.079Z,20.20
2023-04-30T09:54:09.105Z,20.30
2023-04-30T09:56:41.944Z,20.30
2023-04-30T09:59:11.557Z,20.30
2023-04-30T10:01:42.162Z,20.40
2023-04-30T10:04:10.731Z,20.40
2023-04-30T10:06:39.687Z,20.40
2023-04-30T10:09:12.250Z,20.50
2023-04-30T10:11:44.380Z,20.50
2023-04-30T10:14:14.246Z,20.40
2023-04-30T10:16:49.215Z,20.50
2023-04-30T10:19:24.017Z,20.50
2023-04-30T10:21:52.857Z,20.50
2023-04-30T10:24:22.453Z,20.50
2023-04-30T10:26:52.618Z,20.50
2023-04-30T10:31:11.698Z,20.80
2023-04-30T10:33:50.074Z,20.80
2023-04-30T10:36:28.235Z,20.80
2023-04-30T10:38:56.932Z,20.70
2023-04-30T10:41:28.206Z,20.70
2023-04-30T10:44:01.841Z,20.70
2023-04-30T10:46:32.670Z,20.80
2023-04-30T10:49:01.428Z,20.70
2023-04-30T10:51:52.102Z,20.70
2023-04-30T10:54:27.937Z,20.70
2023-04-30T10:57:10.748Z,20.70
2023-04-30T10:59:39.565Z,20.70
2023-04-30T11:02:12.360Z,20.70
2023-04-30T11:07:28.639Z,21.20
2023-04-30T11:09:59.152Z,20.90
2023-04-30T11:12:29.699Z,20.60
2023-04-30T11:15:07.265Z,20.80
2023-04-30T11:17:39.240Z,18.90
2023-04-30T11:20:14.486Z,20.80
2023-04-30T11:22:43.305Z,20.80
2023-04-30T11:25:13.278Z,20.70
2023-04-30T11:27:45.403Z,20.80
2023-04-30T11:30:16.235Z,20.80
2023-04-30T11:32:48.341Z,20.80
2023-04-30T11:35:20.058Z,20.80
2023-04-30T11:37:49.695Z,20.90
2023-04-30T11:40:18.352Z,20.90
2023-04-30T11:42:48.419Z,20.80
2023-04-30T11:45:21.081Z,20.90
2023-04-30T11:47:52.927Z,20.90
2023-04-30T11:50:27.701Z,20.90
2023-04-30T11:52:57.531Z,20.90
2023-04-30T11:55:27.977Z,20.90
2023-04-30T11:57:59.540Z,20.90
2023-04-30T12:00:29.223Z,20.90
2023-04-30T12:03:03.799Z,20.90
2023-04-30T12:05:32.436Z,21.00
2023-04-30T12:08:04.805Z,21.00
2023-04-30T12:10:33.296Z,21.00
2023-04-30T12:13:02.397Z,21.00
2023-04-30T12:15:30.786Z,21.00
2023-04-30T12:18:01.360Z,21.10
2023-04-30T12:20:32.567Z,21.10
2023-04-30T12:23:01.212Z,21.00
2023-04-30T12:25:30.624Z,21.10
2023-04-30T12:28:01.176Z,21.20
2023-04-30T12:30:30.202Z,21.10
2023-04-30T12:33:00.992Z,21.10
2023-04-30T12:35:32.641Z,20.70
2023-04-30T12:38:05.484Z,21.20
2023-04-30T12:40:34.299Z,20.90
2023-04-30T12:43:03.689Z,21.00
2023-04-30T12:45:45.757Z,21.30
2023-04-30T12:48:17.146Z,21.30
2023-04-30T12:50:50.569Z,21.30
2023-04-30T12:53:18.857Z,21.30
2023-04-30T12:56:08.049Z,21.40
2023-04-30T12:58:38.604Z,21.90
2023-04-30T13:01:07.407Z,21.80
2023-04-30T13:03:37.372Z,22.00
2023-04-30T13:06:07.063Z,21.80
2023-04-30T13:08:45.781Z,21.80
2023-04-30T13:16:25.227Z,21.90
2023-04-30T13:18:56.012Z,22.00
2023-04-30T13:21:25.287Z,21.90
2023-04-30T13:23:55.207Z,21.90
2023-04-30T13:26:27.107Z,21.80
2023-04-30T13:28:56.794Z,21.90
2023-04-30T13:31:25.592Z,21.80
2023-04-30T13:33:56.002Z,21.80
2023-04-30T13:36:26.054Z,21.80
2023-04-30T13:38:55.202Z,21.80
2023-04-30T13:41:24.262Z,21.80
2023-04-30T13:43:53.230Z,21.80
2023-04-30T13:46:22.006Z,21.80
2023-04-30T13:48:52.505Z,21.90
2023-04-30T13:51:22.445Z,21.90
2023-04-30T13:53:50.948Z,21.90
2023-04-30T13:56:19.521Z,21.90
2023-04-30T13:58:47.832Z,21.90
2023-04-30T14:01:16.703Z,21.90
2023-04-30T14:03:46.782Z,22.00
2023-04-30T14:06:15.726Z,21.90
2023-04-30T14:08:45.543Z,21.90
2023-04-30T14:11:13.880Z,21.90
2023-04-30T14:13:42.699Z,21.90
2023-04-30T14:16:11.306Z,21.90
2023-04-30T14:18:39.822Z,21.90
2023-04-30T14:21:08.866Z,21.90
2023-04-30T14:23:39.086Z,21.90
2023-04-30T14:26:09.599Z,21.90
2023-04-30T14:28:38.293Z,21.90
2023-04-30T14:31:06.614Z,21.90
2023-04-30T14:33:34.994Z,22.00
2023-04-30T14:36:03.432Z,22.00
2023-04-30T14:38:31.672Z,22.00
2023-04-30T14:41:00.181Z,22.10
2023-04-30T14:43:30.028Z,22.10
2023-04-30T14:45:59.437Z,22.10
2023-04-30T14:48:28.005Z,22.10
2023-04-30T14:50:56.392Z,22.10
2023-04-30T14:53:25.437Z,22.10
2023-04-30T14:55:54.563Z,22.10
2023-04-30T14:58:22.985Z,22.10
2023-04-30T15:00:53.167Z,22.10
2023-04-30T15:03:22.300Z,22.10
2023-04-30T15:05:51.789Z,22.10
2023-04-30T15:08:20.390Z,22.10
2023-04-30T15:10:48.714Z,22.10
2023-04-30T15:13:17.005Z,22.10
2023-04-30T15:15:47.235Z,22.10
2023-04-30T15:18:17.166Z,22.00
2023-04-30T15:20:45.669Z,22.10
2023-04-30T15:23:14.363Z,22.10
2023-04-30T15:25:44.478Z,22.10
2023-04-30T15:28:12.716Z,22.10
2023-04-30T15:30:41.229Z,22.00
2023-04-30T15:33:10.266Z,22.00
2023-04-30T15:35:41.326Z,22.00
2023-04-30T15:38:09.605Z,22.00
2023-04-30T15:40:38.020Z,22.00
2023-04-30T15:43:06.627Z,22.00
2023-04-30T15:45:34.997Z,22.00
2023-04-30T15:48:03.477Z,22.00
2023-04-30T15:50:32.466Z,22.00
2023-04-30T15:53:02.529Z,22.00
2023-04-30T15:55:31.234Z,22.00
2023-04-30T15:58:00.616Z,22.00
2023-04-30T16:00:30.453Z,22.00
2023-04-30T16:02:59.291Z,22.00
2023-04-30T16:05:27.861Z,21.90
2023-04-30T16:07:56.588Z,21.90
2023-04-30T16:10:27.436Z,22.00
2023-04-30T16:12:55.906Z,21.90
2023-04-30T16:15:24.856Z,21.90
2023-04-30T16:17:53.276Z,21.90
2023-04-30T16:20:23.686Z,21.80
2023-04-30T16:22:53.108Z,21.90
2023-04-30T16:25:22.776Z,21.90
2023-04-30T16:27:53.973Z,21.90
2023-04-30T16:30:26.117Z,21.90
2023-04-30T16:35:26.812Z,21.90
2023-04-30T16:37:55.743Z,21.80
2023-04-30T16:40:24.077Z,21.90
2023-04-30T16:42:53.826Z,21.80
2023-04-30T16:45:22.628Z,21.80
2023-04-30T16:47:51.065Z,21.80
2023-04-30T16:50:19.676Z,21.80
2023-04-30T16:52:47.911Z,21.80
2023-04-30T16:55:16.301Z,21.80
2023-04-30T16:57:44.576Z,21.80
2023-04-30T17:00:16.906Z,21.80
2023-04-30T17:02:49.070Z,21.80
2023-04-30T17:05:17.776Z,21.70
2023-04-30T17:07:46.491Z,21.70
2023-04-30T17:10:15.237Z,21.70
2023-04-30T17:12:44.461Z,21.70
2023-04-30T17:15:14.714Z,21.70
2023-04-30T17:17:43.198Z,21.70
2023-04-30T17:20:12.720Z,21.70
2023-04-30T17:22:41.364Z,21.70
2023-04-30T17:25:11.368Z,21.70
2023-04-30T17:27:39.717Z,21.70
2023-04-30T17:30:10.885Z,21.70
2023-04-30T17:32:41.105Z,21.70
2023-04-30T17:35:09.970Z,21.70
2023-04-30T17:37:38.367Z,21.70
2023-04-30T17:40:09.007Z,21.70
2023-04-30T17:42:38.951Z,21.70
2023-04-30T17:45:08.706Z,21.70
2023-04-30T17:47:36.974Z,21.70
2023-04-30T17:50:08.877Z,21.70
2023-04-30T17:52:38.659Z,21.70
2023-04-30T17:55:08.808Z,21.70
2023-04-30T17:57:37.443Z,21.70
2023-04-30T18:00:07.367Z,21.60
2023-04-30T18:02:36.351Z,21.70
2023-04-30T18:05:12.490Z,21.70
2023-04-30T18:07:41.697Z,21.70
2023-04-30T18:10:11.943Z,21.60
2023-04-30T18:12:41.781Z,21.50
2023-04-30T18:15:13.243Z,23.00
2023-04-30T18:17:43.162Z,21.60
2023-04-30T18:20:14.196Z,21.70
2023-04-30T18:22:43.848Z,21.60
2023-04-30T18:25:13.426Z,21.60
2023-04-30T18:27:42.350Z,21.60
2023-04-30T18:30:11.685Z,21.60
2023-04-30T18:32:41.951Z,21.60
2023-04-30T18:35:12.499Z,22.00
2023-04-30T18:37:40.917Z,21.60
2023-04-30T18:40:10.446Z,21.60
2023-04-30T18:42:39.722Z,21.50
2023-04-30T18:45:09.376Z,21.60
2023-04-30T18:47:38.008Z,21.60
2023-04-30T18:50:13.608Z,21.60
2023-04-30T18:52:43.456Z,21.60
2023-04-30T18:55:13.872Z,21.60
2023-04-30T18:57:43.364Z,21.60
2023-04-30T19:00:14.242Z,21.60
2023-04-30T19:02:43.414Z,21.60
2023-04-30T19:05:12.482Z,21.50
2023-04-30T19:07:42.284Z,21.50
2023-04-30T19:10:11.123Z,21.50
2023-04-30T19:12:39.813Z,21.50
2023-04-30T19:15:11.714Z,21.50
2023-04-30T19:17:40.506Z,21.50
2023-04-30T19:20:10.350Z,21.50
2023-04-30T19:22:39.009Z,21.50
2023-04-30T19:25:10.015Z,21.50
2023-04-30T19:27:38.636Z,21.50
2023-04-30T19:30:08.547Z,21.50
2023-04-30T19:32:37.359Z,21.50
2023-04-30T19:35:07.298Z,21.50
2023-04-30T19:37:36.468Z,21.40
2023-04-30T19:40:11.992Z,21.50
2023-04-30T19:42:41.001Z,21.40
2023-04-30T19:45:10.947Z,21.40
2023-04-30T19:47:39.792Z,21.40
2023-04-30T19:50:10.045Z,21.40
2023-04-30T19:52:38.675Z,21.40
2023-04-30T19:55:07.632Z,21.40
2023-04-30T19:57:38.120Z,21.40
2023-04-30T20:00:08.705Z,21.40
2023-04-30T20:02:37.113Z,21.40
2023-04-30T20:05:07.239Z,21.40
2023-04-30T20:07:35.948Z,21.40
2023-04-30T20:10:05.126Z,21.40
2023-04-30T20:12:33.538Z,21.40
2023-04-30T20:15:03.674Z,21.30
2023-04-30T20:17:34.112Z,21.30
2023-04-30T20:20:02.988Z,21.30
2023-04-30T20:22:31.605Z,21.30
2023-04-30T20:25:02.766Z,21.30
2023-04-30T20:27:31.582Z,21.30
2023-04-30T20:29:59.843Z,21.30
2023-04-30T20:32:29.698Z,21.30
2023-04-30T20:34:58.366Z,21.30
2023-04-30T20:37:27.007Z,21.30
2023-04-30T20:39:55.745Z,21.30
2023-04-30T20:42:24.593Z,21.30
2023-04-30T20:44:53.056Z,21.30
2023-04-30T20:47:21.506Z,21.30
2023-04-30T20:49:51.403Z,21.30
2023-04-30T20:52:20.237Z,21.30
2023-04-30T20:54:50.073Z,21.30
2023-04-30T20:57:18.462Z,21.20
2023-04-30T20:59:46.976Z,21.20
2023-04-30T21:02:15.475Z,21.20
2023-04-30T21:04:43.878Z,21.20
2023-04-30T21:07:13.697Z,21.20
2023-04-30T21:09:42.119Z,21.20
2023-04-30T21:12:12.000Z,21.20
2023-04-30T21:14:40.338Z,21.20
2023-04-30T21:17:08.925Z,21.20
2023-04-30T21:19:37.433Z,21.20
2023-04-30T21:22:06.006Z,21.20
2023-04-30T21:24:35.678Z,21.20
2023-04-30T21:27:04.335Z,21.20
2023-04-30T21:29:32.654Z,21.20
2023-04-30T21:32:00.951Z,21.20
2023-04-30T21:34:31.828Z,21.10
2023-04-30T21:37:00.823Z,21.20
2023-04-30T21:39:30.456Z,20.80
2023-04-30T21:42:01.259Z,21.10
2023-04-30T21:44:33.835Z,21.20
2023-04-30T21:47:02.240Z,21.10
2023-04-30T21:49:31.254Z,21.10
2023-04-30T21:51:59.791Z,21.10
2023-04-30T21:54:28.360Z,21.10
2023-04-30T21:56:56.963Z,21.10
2023-04-30T21:59:26.864Z,21.10
2023-04-30T22:01:55.421Z,21.10
2023-04-30T22:04:25.486Z,21.10
2023-04-30T22:06:54.340Z,21.10
2023-04-30T22:09:23.824Z,21.10
2023-04-30T22:11:52.343Z,21.10
2023-04-30T22:14:21.285Z,21.10
2023-04-30T22:16:51.346Z,21.10
2023-04-30T22:19:19.957Z,21.10
2023-04-30T22:21:48.534Z,21.10
2023-04-30T22:24:16.783Z,21.10
2023-04-30T22:26:45.255Z,21.10
2023-04-30T22:29:13.484Z,21.10
2023-04-30T22:31:41.901Z,21.10
2023-04-30T22:34:12.558Z,21.10
2023-04-30T22:36:40.871Z,21.00
2023-04-30T22:39:10.197Z,21.10
2023-04-30T22:41:38.937Z,21.00
2023-04-30T22:44:07.639Z,21.00
2023-04-30T22:46:36.854Z,21.00
2023-04-30T22:49:05.273Z,21.00
2023-04-30T22:51:37.286Z,21.00
2023-04-30T22:54:06.002Z,21.00
2023-04-30T22:56:34.564Z,21.00
2023-04-30T22:59:03.399Z,21.00
2023-04-30T23:01:32.008Z,21.00
2023-04-30T23:04:00.681Z,21.00
2023-04-30T23:06:31.382Z,21.00
2023-04-30T23:09:01.151Z,21.00
2023-04-30T23:11:29.383Z,21.00
2023-04-30T23:13:57.928Z,21.00
2023-04-30T23:16:26.547Z,20.90
2023-04-30T23:18:54.973Z,20.90
2023-04-30T23:21:23.357Z,20.90
2023-04-30T23:23:52.085Z,21.00
2023-04-30T23:26:22.868Z,20.90
2023-04-30T23:28:51.341Z,20.90
2023-04-30T23:31:19.980Z,20.90
2023-04-30T23:33:48.359Z,20.90
2023-04-30T23:36:17.071Z,20.90
2023-04-30T23:38:46.970Z,20.90
2023-04-30T23:41:16.097Z,20.90
2023-04-30T23:43:45.807Z,20.90
2023-04-30T23:46:16.090Z,20.90
2023-04-30T23:48:45.248Z,20.90
2023-04-30T23:51:13.526Z,20.90
2023-04-30T23:53:42.854Z,20.80
2023-04-30T23:56:11.722Z,20.80
2023-04-30T23:58:40.580Z,20.80
